Terminal Aerodrome Forecast
Issued by NWS

Home | Current Version | Previous Version | Text Only | Print | Product List | Glossary On
Versions: 1 2 3 4 5 6 7 8 9 10 11 12 13 14 15 16 17 18 19 20 21
000
FTAK31 PAJN 230546
TAFAYA
TAF
PAYA 230546Z 2306/2406 00000KT P6SM VCSH BKN008 OVC018
      TEMPO 2309/2313 3SM BR BKN005 BKN018
     FM231500 VRB05KT P6SM SCT010 BKN025
     FM231900 28006KT P6SM SCT020 BKN040
      AMD LTD TO CLD VIS AND WIND 2306/2309=

USA.gov is the U.S. government's official web portal to all federal, state and local government web resources and services.